Hlavní strana
METAR-TAF:

METAR-TAF

Letiště :

Ghat, Libye

zeměpisná šířka: 25-08N, zeměpisná délka: 010-09E, výška: 699 m

METAR: chybějící

Čas: 09:51 (07:51 UTC)

Předpověď počasí

Zpráva byla vytvořena před 14 hodinami a 51 minutami, v 17:00 UTC
Předpověď platná od 06 v 18 UTC do 07 v 18 UTC
vítr z různých směrů 2 kt
Viditelnost 10 km a více
Žádná oblačnost pod 1500 m, nevyskytují se cumulonimby.
Změna
od 07 v 15 UTC do 07 v 17 UTC
Jihojihovýchodní vítr 10 kt

TAF: HLGT 061700Z 0618/0718 VRB02KT CAVOK BECMG 0715/0717 15010KT

Stav a předpovědi počasí z více než 4 000 letišť (zprávy METAR a TAF).

Červené a žluté tečky na mapě představují dostupné meteorologické stanice.

Když kurzor umístíte na tečku, zobrazí se název stanice.

Pak kliknutím zobrazíte stav a předpověď počasí.

Chcete-li změnit mapu, kliknutím na zelené tlačítko se znaménkem +mapu přiblížíte, kliknutím na zelené tlačítko se znaménkem – mapu oddálíte a kliknutím na zelené šipky přejdete na sousední mapy.


METAR-TAF: